sensor_id;sensor_type;location;lat;lon;timestamp;temperature;humidity
19003;DHT22;9634;51.040;13.794;2022-08-03T00:00:28;26.30;99.90
19003;DHT22;9634;51.040;13.794;2022-08-03T00:05:31;26.30;99.90
19003;DHT22;9634;51.040;13.794;2022-08-03T00:10:34;26.40;99.90
19003;DHT22;9634;51.040;13.794;2022-08-03T00:15:36;26.30;99.90
19003;DHT22;9634;51.040;13.794;2022-08-03T00:20:40;26.40;99.90
19003;DHT22;9634;51.040;13.794;2022-08-03T00:25:42;26.30;99.90
19003;DHT22;9634;51.040;13.794;2022-08-03T00:30:44;26.40;99.90
19003;DHT22;9634;51.040;13.794;2022-08-03T00:35:48;26.30;99.90
19003;DHT22;9634;51.040;13.794;2022-08-03T00:40:50;26.30;99.90
19003;DHT22;9634;51.040;13.794;2022-08-03T00:45:53;26.30;99.90
19003;DHT22;9634;51.040;13.794;2022-08-03T00:50:57;26.30;99.90
19003;DHT22;9634;51.040;13.794;2022-08-03T00:55:59;26.30;99.90
19003;DHT22;9634;51.040;13.794;2022-08-03T01:01:02;26.30;99.90
19003;DHT22;9634;51.040;13.794;2022-08-03T01:06:14;26.30;99.90
19003;DHT22;9634;51.040;13.794;2022-08-03T01:11:25;26.30;99.90
19003;DHT22;9634;51.040;13.794;2022-08-03T01:16:34;26.30;99.90
19003;DHT22;9634;51.040;13.794;2022-08-03T01:21:47;26.30;99.90
19003;DHT22;9634;51.040;13.794;2022-08-03T01:27:02;26.30;99.90
19003;DHT22;9634;51.040;13.794;2022-08-03T01:32:11;26.30;99.90
19003;DHT22;9634;51.040;13.794;2022-08-03T01:37:17;26.30;99.90
19003;DHT22;9634;51.040;13.794;2022-08-03T01:42:24;26.30;99.90
19003;DHT22;9634;51.040;13.794;2022-08-03T01:47:29;26.30;99.90
19003;DHT22;9634;51.040;13.794;2022-08-03T01:52:33;26.30;99.90
19003;DHT22;9634;51.040;13.794;2022-08-03T01:57:38;26.30;99.90
19003;DHT22;9634;51.040;13.794;2022-08-03T02:02:43;26.30;99.90
19003;DHT22;9634;51.040;13.794;2022-08-03T02:07:49;26.30;99.90
19003;DHT22;9634;51.040;13.794;2022-08-03T02:12:52;26.30;99.90
19003;DHT22;9634;51.040;13.794;2022-08-03T02:17:57;26.30;99.90
19003;DHT22;9634;51.040;13.794;2022-08-03T02:23:01;26.30;99.90
19003;DHT22;9634;51.040;13.794;2022-08-03T02:28:07;26.30;99.90
19003;DHT22;9634;51.040;13.794;2022-08-03T02:33:15;26.20;99.90
19003;DHT22;9634;51.040;13.794;2022-08-03T02:38:21;26.30;99.90
19003;DHT22;9634;51.040;13.794;2022-08-03T02:43:25;26.30;99.90
19003;DHT22;9634;51.040;13.794;2022-08-03T02:48:31;26.30;99.90
19003;DHT22;9634;51.040;13.794;2022-08-03T02:53:35;26.30;99.90
19003;DHT22;9634;51.040;13.794;2022-08-03T02:58:38;26.30;99.90
19003;DHT22;9634;51.040;13.794;2022-08-03T03:03:43;26.30;99.90
19003;DHT22;9634;51.040;13.794;2022-08-03T03:08:46;26.20;99.90
19003;DHT22;9634;51.040;13.794;2022-08-03T03:13:49;26.30;99.90
19003;DHT22;9634;51.040;13.794;2022-08-03T03:18:54;26.30;99.90
19003;DHT22;9634;51.040;13.794;2022-08-03T03:23:57;26.20;99.90
19003;DHT22;9634;51.040;13.794;2022-08-03T03:29:00;26.20;99.90
19003;DHT22;9634;51.040;13.794;2022-08-03T03:34:04;26.30;99.90
19003;DHT22;9634;51.040;13.794;2022-08-03T03:39:06;26.30;99.90
19003;DHT22;9634;51.040;13.794;2022-08-03T03:44:10;26.20;99.90
19003;DHT22;9634;51.040;13.794;2022-08-03T03:49:14;26.30;99.90
19003;DHT22;9634;51.040;13.794;2022-08-03T03:54:16;26.20;99.90
19003;DHT22;9634;51.040;13.794;2022-08-03T03:59:19;26.30;99.90
19003;DHT22;9634;51.040;13.794;2022-08-03T04:04:22;26.30;99.90
19003;DHT22;9634;51.040;13.794;2022-08-03T04:09:43;26.30;99.90
19003;DHT22;9634;51.040;13.794;2022-08-03T04:15:05;26.30;99.90
19003;DHT22;9634;51.040;13.794;2022-08-03T04:20:10;26.20;99.90
19003;DHT22;9634;51.040;13.794;2022-08-03T04:25:15;26.20;99.90
19003;DHT22;9634;51.040;13.794;2022-08-03T04:30:19;26.20;99.90
19003;DHT22;9634;51.040;13.794;2022-08-03T04:35:24;26.20;99.90
19003;DHT22;9634;51.040;13.794;2022-08-03T04:40:32;26.20;99.90
19003;DHT22;9634;51.040;13.794;2022-08-03T04:45:35;26.30;99.90
19003;DHT22;9634;51.040;13.794;2022-08-03T04:50:40;26.30;99.90
19003;DHT22;9634;51.040;13.794;2022-08-03T04:55:42;26.20;99.90
19003;DHT22;9634;51.040;13.794;2022-08-03T05:00:44;26.20;99.90
19003;DHT22;9634;51.040;13.794;2022-08-03T05:05:52;26.30;99.90
19003;DHT22;9634;51.040;13.794;2022-08-03T05:10:55;26.20;99.90
19003;DHT22;9634;51.040;13.794;2022-08-03T05:15:58;26.20;99.90
19003;DHT22;9634;51.040;13.794;2022-08-03T05:21:01;26.30;99.90
19003;DHT22;9634;51.040;13.794;2022-08-03T05:26:04;26.30;99.90
19003;DHT22;9634;51.040;13.794;2022-08-03T05:31:07;26.30;99.90
19003;DHT22;9634;51.040;13.794;2022-08-03T05:36:10;26.30;99.90
19003;DHT22;9634;51.040;13.794;2022-08-03T05:41:13;26.30;99.90
19003;DHT22;9634;51.040;13.794;2022-08-03T05:46:15;26.30;99.90
19003;DHT22;9634;51.040;13.794;2022-08-03T05:51:19;26.30;99.90
19003;DHT22;9634;51.040;13.794;2022-08-03T05:56:21;26.30;99.90
19003;DHT22;9634;51.040;13.794;2022-08-03T06:01:25;26.30;99.90
19003;DHT22;9634;51.040;13.794;2022-08-03T06:06:28;26.30;99.90
19003;DHT22;9634;51.040;13.794;2022-08-03T06:11:31;26.30;99.90
19003;DHT22;9634;51.040;13.794;2022-08-03T06:16:33;26.30;99.90
19003;DHT22;9634;51.040;13.794;2022-08-03T06:21:37;26.40;99.90
19003;DHT22;9634;51.040;13.794;2022-08-03T06:26:39;26.30;99.90
19003;DHT22;9634;51.040;13.794;2022-08-03T06:31:42;26.40;99.90
19003;DHT22;9634;51.040;13.794;2022-08-03T06:36:45;26.30;99.90
19003;DHT22;9634;51.040;13.794;2022-08-03T06:41:48;26.40;99.90
19003;DHT22;9634;51.040;13.794;2022-08-03T06:46:52;26.30;99.90
19003;DHT22;9634;51.040;13.794;2022-08-03T06:51:55;26.30;99.90
19003;DHT22;9634;51.040;13.794;2022-08-03T06:56:58;26.30;99.90
19003;DHT22;9634;51.040;13.794;2022-08-03T07:02:00;26.40;99.90
19003;DHT22;9634;51.040;13.794;2022-08-03T07:07:04;26.40;99.90
19003;DHT22;9634;51.040;13.794;2022-08-03T07:12:06;26.40;99.90
19003;DHT22;9634;51.040;13.794;2022-08-03T07:17:08;26.40;99.90
19003;DHT22;9634;51.040;13.794;2022-08-03T07:22:12;26.40;99.90
19003;DHT22;9634;51.040;13.794;2022-08-03T07:27:15;26.40;99.90
19003;DHT22;9634;51.040;13.794;2022-08-03T07:32:17;26.40;99.90
19003;DHT22;9634;51.040;13.794;2022-08-03T07:37:21;26.40;99.90
19003;DHT22;9634;51.040;13.794;2022-08-03T07:42:23;26.40;99.90
19003;DHT22;9634;51.040;13.794;2022-08-03T07:47:27;26.40;99.90
19003;DHT22;9634;51.040;13.794;2022-08-03T07:52:31;26.40;99.90
19003;DHT22;9634;51.040;13.794;2022-08-03T07:57:59;26.40;99.90
19003;DHT22;9634;51.040;13.794;2022-08-03T08:03:02;26.40;99.90
19003;DHT22;9634;51.040;13.794;2022-08-03T08:08:06;26.40;99.90
19003;DHT22;9634;51.040;13.794;2022-08-03T08:13:08;26.40;99.90
19003;DHT22;9634;51.040;13.794;2022-08-03T08:18:11;26.40;99.90
19003;DHT22;9634;51.040;13.794;2022-08-03T08:23:14;26.40;99.90
19003;DHT22;9634;51.040;13.794;2022-08-03T08:28:22;26.40;99.90
19003;DHT22;9634;51.040;13.794;2022-08-03T08:33:24;26.40;99.90
19003;DHT22;9634;51.040;13.794;2022-08-03T08:38:28;26.40;99.90
19003;DHT22;9634;51.040;13.794;2022-08-03T08:43:30;26.40;99.90
19003;DHT22;9634;51.040;13.794;2022-08-03T08:48:35;26.40;99.90
19003;DHT22;9634;51.040;13.794;2022-08-03T08:53:44;26.40;99.90
19003;DHT22;9634;51.040;13.794;2022-08-03T08:58:51;26.50;99.90
19003;DHT22;9634;51.040;13.794;2022-08-03T09:03:54;26.50;99.90
19003;DHT22;9634;51.040;13.794;2022-08-03T09:08:58;26.40;99.90
19003;DHT22;9634;51.040;13.794;2022-08-03T09:14:00;26.40;99.90
19003;DHT22;9634;51.040;13.794;2022-08-03T09:19:11;26.40;99.90
19003;DHT22;9634;51.040;13.794;2022-08-03T09:24:20;26.50;99.90
19003;DHT22;9634;51.040;13.794;2022-08-03T09:29:22;26.50;99.90
19003;DHT22;9634;51.040;13.794;2022-08-03T09:34:25;26.40;99.90
19003;DHT22;9634;51.040;13.794;2022-08-03T09:39:35;26.40;99.90
19003;DHT22;9634;51.040;13.794;2022-08-03T09:44:39;26.50;99.90
19003;DHT22;9634;51.040;13.794;2022-08-03T09:49:56;26.40;99.90
19003;DHT22;9634;51.040;13.794;2022-08-03T09:55:00;26.50;99.90
19003;DHT22;9634;51.040;13.794;2022-08-03T10:00:08;26.50;99.90
19003;DHT22;9634;51.040;13.794;2022-08-03T10:05:14;26.50;99.90
19003;DHT22;9634;51.040;13.794;2022-08-03T10:10:18;26.50;99.90
19003;DHT22;9634;51.040;13.794;2022-08-03T10:15:21;26.50;99.90
19003;DHT22;9634;51.040;13.794;2022-08-03T10:20:23;26.50;99.90
19003;DHT22;9634;51.040;13.794;2022-08-03T10:25:29;26.50;99.90
19003;DHT22;9634;51.040;13.794;2022-08-03T10:30:32;26.50;99.90
19003;DHT22;9634;51.040;13.794;2022-08-03T10:35:36;26.50;99.90
19003;DHT22;9634;51.040;13.794;2022-08-03T10:40:42;26.50;99.90
19003;DHT22;9634;51.040;13.794;2022-08-03T10:45:45;26.50;99.90
19003;DHT22;9634;51.040;13.794;2022-08-03T10:50:48;26.50;99.90
19003;DHT22;9634;51.040;13.794;2022-08-03T10:55:52;26.50;99.90
19003;DHT22;9634;51.040;13.794;2022-08-03T11:01:12;26.50;99.90
19003;DHT22;9634;51.040;13.794;2022-08-03T11:06:16;26.60;99.90
19003;DHT22;9634;51.040;13.794;2022-08-03T11:11:26;26.60;99.90
19003;DHT22;9634;51.040;13.794;2022-08-03T11:16:30;26.60;99.90
19003;DHT22;9634;51.040;13.794;2022-08-03T11:21:57;26.60;99.90
19003;DHT22;9634;51.040;13.794;2022-08-03T11:27:20;26.60;99.90
19003;DHT22;9634;51.040;13.794;2022-08-03T11:32:58;26.60;99.90
19003;DHT22;9634;51.040;13.794;2022-08-03T11:38:09;26.60;99.90
19003;DHT22;9634;51.040;13.794;2022-08-03T11:48:47;26.60;99.90
19003;DHT22;9634;51.040;13.794;2022-08-03T11:53:57;26.70;99.90
19003;DHT22;9634;51.040;13.794;2022-08-03T11:59:00;26.70;99.90
19003;DHT22;9634;51.040;13.794;2022-08-03T12:04:04;26.70;99.90
19003;DHT22;9634;51.040;13.794;2022-08-03T12:09:14;26.70;99.90
19003;DHT22;9634;51.040;13.794;2022-08-03T12:14:17;26.70;99.90
19003;DHT22;9634;51.040;13.794;2022-08-03T12:19:20;26.70;99.90
19003;DHT22;9634;51.040;13.794;2022-08-03T12:24:23;26.70;99.90
19003;DHT22;9634;51.040;13.794;2022-08-03T12:29:28;26.70;99.90
19003;DHT22;9634;51.040;13.794;2022-08-03T12:34:47;26.80;99.90
19003;DHT22;9634;51.040;13.794;2022-08-03T12:39:51;26.80;99.90
19003;DHT22;9634;51.040;13.794;2022-08-03T12:44:53;26.80;99.90
19003;DHT22;9634;51.040;13.794;2022-08-03T12:49:57;26.80;99.90
19003;DHT22;9634;51.040;13.794;2022-08-03T12:55:00;26.80;99.90
19003;DHT22;9634;51.040;13.794;2022-08-03T13:00:09;26.80;99.90
19003;DHT22;9634;51.040;13.794;2022-08-03T13:05:14;26.80;99.90
19003;DHT22;9634;51.040;13.794;2022-08-03T13:10:27;26.80;99.90
19003;DHT22;9634;51.040;13.794;2022-08-03T13:15:29;26.80;99.90
19003;DHT22;9634;51.040;13.794;2022-08-03T13:20:33;26.90;99.90
19003;DHT22;9634;51.040;13.794;2022-08-03T13:25:35;26.90;99.90
19003;DHT22;9634;51.040;13.794;2022-08-03T13:30:37;26.90;99.90
19003;DHT22;9634;51.040;13.794;2022-08-03T13:35:41;26.90;99.90
19003;DHT22;9634;51.040;13.794;2022-08-03T13:40:43;26.90;99.90
19003;DHT22;9634;51.040;13.794;2022-08-03T13:45:46;26.90;99.90
19003;DHT22;9634;51.040;13.794;2022-08-03T13:50:49;26.90;99.90
19003;DHT22;9634;51.040;13.794;2022-08-03T13:55:52;26.90;99.90
19003;DHT22;9634;51.040;13.794;2022-08-03T14:00:54;26.90;99.90
19003;DHT22;9634;51.040;13.794;2022-08-03T14:05:58;26.90;99.90
19003;DHT22;9634;51.040;13.794;2022-08-03T14:11:00;27.00;99.90
19003;DHT22;9634;51.040;13.794;2022-08-03T14:16:03;27.00;99.90
19003;DHT22;9634;51.040;13.794;2022-08-03T14:21:06;27.00;99.90
19003;DHT22;9634;51.040;13.794;2022-08-03T14:26:09;27.00;99.90
19003;DHT22;9634;51.040;13.794;2022-08-03T14:31:11;27.00;99.90
19003;DHT22;9634;51.040;13.794;2022-08-03T14:36:15;27.00;99.90
19003;DHT22;9634;51.040;13.794;2022-08-03T14:41:17;27.00;99.90
19003;DHT22;9634;51.040;13.794;2022-08-03T14:46:20;27.00;99.90
19003;DHT22;9634;51.040;13.794;2022-08-03T14:51:23;27.10;99.90
19003;DHT22;9634;51.040;13.794;2022-08-03T14:56:26;27.10;99.90
19003;DHT22;9634;51.040;13.794;2022-08-03T15:01:28;27.10;99.90
19003;DHT22;9634;51.040;13.794;2022-08-03T15:06:32;27.10;99.90
19003;DHT22;9634;51.040;13.794;2022-08-03T15:11:34;27.10;99.90
19003;DHT22;9634;51.040;13.794;2022-08-03T15:16:37;27.10;99.90
19003;DHT22;9634;51.040;13.794;2022-08-03T15:21:40;27.10;99.90
19003;DHT22;9634;51.040;13.794;2022-08-03T15:26:43;27.10;99.90
19003;DHT22;9634;51.040;13.794;2022-08-03T15:31:45;27.10;99.90
19003;DHT22;9634;51.040;13.794;2022-08-03T15:36:49;27.10;99.90
19003;DHT22;9634;51.040;13.794;2022-08-03T15:41:51;27.10;99.90
19003;DHT22;9634;51.040;13.794;2022-08-03T15:46:53;27.10;99.90
19003;DHT22;9634;51.040;13.794;2022-08-03T15:51:57;27.10;99.90
19003;DHT22;9634;51.040;13.794;2022-08-03T15:57:00;27.10;99.90
19003;DHT22;9634;51.040;13.794;2022-08-03T16:02:03;27.10;99.90
19003;DHT22;9634;51.040;13.794;2022-08-03T16:07:06;27.10;99.90
19003;DHT22;9634;51.040;13.794;2022-08-03T16:12:10;27.00;99.90
19003;DHT22;9634;51.040;13.794;2022-08-03T16:17:12;27.10;99.90
19003;DHT22;9634;51.040;13.794;2022-08-03T16:22:16;27.00;99.90
19003;DHT22;9634;51.040;13.794;2022-08-03T16:27:18;27.00;99.90
19003;DHT22;9634;51.040;13.794;2022-08-03T16:32:20;27.00;99.90
19003;DHT22;9634;51.040;13.794;2022-08-03T16:37:24;27.00;99.90
19003;DHT22;9634;51.040;13.794;2022-08-03T16:42:27;27.00;99.90
19003;DHT22;9634;51.040;13.794;2022-08-03T16:47:29;27.00;99.90
19003;DHT22;9634;51.040;13.794;2022-08-03T16:52:33;27.00;99.90
19003;DHT22;9634;51.040;13.794;2022-08-03T16:57:36;27.00;99.90
19003;DHT22;9634;51.040;13.794;2022-08-03T17:02:40;27.00;99.90
19003;DHT22;9634;51.040;13.794;2022-08-03T17:07:46;27.00;99.90
19003;DHT22;9634;51.040;13.794;2022-08-03T17:12:48;27.00;99.90
19003;DHT22;9634;51.040;13.794;2022-08-03T17:17:55;27.00;99.90
19003;DHT22;9634;51.040;13.794;2022-08-03T17:23:07;27.00;99.90
19003;DHT22;9634;51.040;13.794;2022-08-03T17:28:13;27.00;99.90
19003;DHT22;9634;51.040;13.794;2022-08-03T17:33:16;27.00;99.90
19003;DHT22;9634;51.040;13.794;2022-08-03T17:38:21;27.00;99.90
19003;DHT22;9634;51.040;13.794;2022-08-03T17:43:24;27.00;99.90
19003;DHT22;9634;51.040;13.794;2022-08-03T17:48:27;26.90;99.90
19003;DHT22;9634;51.040;13.794;2022-08-03T17:53:34;26.90;99.90
19003;DHT22;9634;51.040;13.794;2022-08-03T17:58:52;26.90;99.90
19003;DHT22;9634;51.040;13.794;2022-08-03T18:04:00;26.90;99.90
19003;DHT22;9634;51.040;13.794;2022-08-03T18:09:06;26.90;99.90
19003;DHT22;9634;51.040;13.794;2022-08-03T18:14:13;26.90;99.90
19003;DHT22;9634;51.040;13.794;2022-08-03T18:19:16;26.90;99.90
19003;DHT22;9634;51.040;13.794;2022-08-03T18:24:22;26.90;99.90
19003;DHT22;9634;51.040;13.794;2022-08-03T18:29:26;26.90;99.90
19003;DHT22;9634;51.040;13.794;2022-08-03T18:34:29;26.90;99.90
19003;DHT22;9634;51.040;13.794;2022-08-03T18:39:35;26.90;99.90
19003;DHT22;9634;51.040;13.794;2022-08-03T18:44:38;26.90;99.90
19003;DHT22;9634;51.040;13.794;2022-08-03T18:49:55;26.90;99.90
19003;DHT22;9634;51.040;13.794;2022-08-03T18:55:06;26.90;99.90
19003;DHT22;9634;51.040;13.794;2022-08-03T19:00:11;26.90;99.90
19003;DHT22;9634;51.040;13.794;2022-08-03T19:05:18;26.80;99.90
19003;DHT22;9634;51.040;13.794;2022-08-03T19:10:24;26.80;99.90
19003;DHT22;9634;51.040;13.794;2022-08-03T19:15:28;26.90;99.90
19003;DHT22;9634;51.040;13.794;2022-08-03T19:20:32;26.90;99.90
19003;DHT22;9634;51.040;13.794;2022-08-03T19:25:37;26.80;99.90
19003;DHT22;9634;51.040;13.794;2022-08-03T19:30:40;26.80;99.90
19003;DHT22;9634;51.040;13.794;2022-08-03T19:35:43;26.80;99.90
19003;DHT22;9634;51.040;13.794;2022-08-03T19:40:48;26.80;99.90
19003;DHT22;9634;51.040;13.794;2022-08-03T19:45:54;26.80;99.90
19003;DHT22;9634;51.040;13.794;2022-08-03T19:50:57;26.80;99.90
19003;DHT22;9634;51.040;13.794;2022-08-03T19:56:05;26.80;99.90
19003;DHT22;9634;51.040;13.794;2022-08-03T20:01:07;26.80;99.90
19003;DHT22;9634;51.040;13.794;2022-08-03T20:06:10;26.80;99.90
19003;DHT22;9634;51.040;13.794;2022-08-03T20:11:14;26.80;99.90
19003;DHT22;9634;51.040;13.794;2022-08-03T20:16:17;26.80;99.90
19003;DHT22;9634;51.040;13.794;2022-08-03T20:21:21;26.80;99.90
19003;DHT22;9634;51.040;13.794;2022-08-03T20:26:27;26.80;99.90
19003;DHT22;9634;51.040;13.794;2022-08-03T20:31:30;26.80;99.90
19003;DHT22;9634;51.040;13.794;2022-08-03T20:36:33;26.80;99.90
19003;DHT22;9634;51.040;13.794;2022-08-03T20:41:37;26.80;99.90
19003;DHT22;9634;51.040;13.794;2022-08-03T20:46:39;26.80;99.90
19003;DHT22;9634;51.040;13.794;2022-08-03T20:51:42;26.80;99.90
19003;DHT22;9634;51.040;13.794;2022-08-03T20:56:46;26.80;99.90
19003;DHT22;9634;51.040;13.794;2022-08-03T21:01:49;26.80;99.90
19003;DHT22;9634;51.040;13.794;2022-08-03T21:06:56;26.80;99.90
19003;DHT22;9634;51.040;13.794;2022-08-03T21:12:02;26.80;99.90
19003;DHT22;9634;51.040;13.794;2022-08-03T21:17:08;26.80;99.90
19003;DHT22;9634;51.040;13.794;2022-08-03T21:22:12;26.90;99.90
19003;DHT22;9634;51.040;13.794;2022-08-03T21:27:17;26.80;99.90
19003;DHT22;9634;51.040;13.794;2022-08-03T21:32:21;26.80;99.90
19003;DHT22;9634;51.040;13.794;2022-08-03T21:37:24;26.80;99.90
19003;DHT22;9634;51.040;13.794;2022-08-03T21:42:27;26.80;99.90
19003;DHT22;9634;51.040;13.794;2022-08-03T21:47:33;26.80;99.90
19003;DHT22;9634;51.040;13.794;2022-08-03T21:52:41;26.80;99.90
19003;DHT22;9634;51.040;13.794;2022-08-03T21:57:50;26.80;99.90
19003;DHT22;9634;51.040;13.794;2022-08-03T22:02:54;26.80;99.90
19003;DHT22;9634;51.040;13.794;2022-08-03T22:07:57;26.80;99.90
19003;DHT22;9634;51.040;13.794;2022-08-03T22:13:01;26.80;99.90
19003;DHT22;9634;51.040;13.794;2022-08-03T22:18:04;26.80;99.90
19003;DHT22;9634;51.040;13.794;2022-08-03T22:23:07;26.80;99.90
19003;DHT22;9634;51.040;13.794;2022-08-03T22:28:12;26.80;99.90
19003;DHT22;9634;51.040;13.794;2022-08-03T22:33:15;26.80;99.90
19003;DHT22;9634;51.040;13.794;2022-08-03T22:38:19;26.80;99.90
19003;DHT22;9634;51.040;13.794;2022-08-03T22:43:24;26.80;99.90
19003;DHT22;9634;51.040;13.794;2022-08-03T22:48:31;26.80;99.90
19003;DHT22;9634;51.040;13.794;2022-08-03T22:53:34;26.80;99.90
19003;DHT22;9634;51.040;13.794;2022-08-03T22:58:38;26.80;99.90
19003;DHT22;9634;51.040;13.794;2022-08-03T23:03:41;26.80;99.90
19003;DHT22;9634;51.040;13.794;2022-08-03T23:08:49;26.80;99.90
19003;DHT22;9634;51.040;13.794;2022-08-03T23:13:53;26.80;99.90
19003;DHT22;9634;51.040;13.794;2022-08-03T23:24:32;26.80;99.90
19003;DHT22;9634;51.040;13.794;2022-08-03T23:29:38;26.80;99.90
19003;DHT22;9634;51.040;13.794;2022-08-03T23:34:43;26.80;99.90
19003;DHT22;9634;51.040;13.794;2022-08-03T23:40:05;26.80;99.90
19003;DHT22;9634;51.040;13.794;2022-08-03T23:45:10;26.80;99.90
19003;DHT22;9634;51.040;13.794;2022-08-03T23:50:13;26.80;99.90
19003;DHT22;9634;51.040;13.794;2022-08-03T23:55:24;26.80;99.90
